Time;durP1;ratioP1;P1;durP2;ratioP2;P2;SDS_P1;SDS_P2;PMS_P1;PMS_P2;Temp;Humidity;BMP_temperature;BMP_pressure;BME280_temperature;BME280_humidity;BME280_pressure;Samples;Min_cycle;Max_cycle;Signal;HPM_P1;HPM_P2
2022/09/17 00:01:27;;;;;;;1.30;1.20;;;8.50;99.90;;;;;;492934;241;28414;-69
2022/09/17 00:03:28;;;;;;;1.13;1.10;;;8.50;99.90;;;;;;492925;241;28527;-68
2022/09/17 00:05:29;;;;;;;1.37;1.30;;;8.50;99.90;;;;;;492970;241;28482;-70
2022/09/17 00:07:31;;;;;;;1.27;1.17;;;8.40;99.90;;;;;;492811;241;28535;-67
2022/09/17 00:09:32;;;;;;;1.30;1.20;;;8.40;99.90;;;;;;492908;241;28051;-67
2022/09/17 00:11:33;;;;;;;3.17;1.23;;;8.50;99.90;;;;;;492974;241;27968;-67
2022/09/17 00:13:34;;;;;;;1.10;1.10;;;8.40;99.90;;;;;;492934;241;27717;-67
2022/09/17 00:15:36;;;;;;;1.20;1.20;;;8.50;99.90;;;;;;492979;241;27890;-70
2022/09/17 00:17:37;;;;;;;1.80;1.20;;;8.40;99.90;;;;;;492860;241;28024;-68
2022/09/17 00:19:38;;;;;;;1.40;1.30;;;8.40;99.90;;;;;;492904;241;27630;-68
2022/09/17 00:21:39;;;;;;;1.33;1.33;;;8.40;99.90;;;;;;492936;241;27842;-70
2022/09/17 00:23:41;;;;;;;1.50;1.40;;;8.40;99.90;;;;;;492953;241;27955;-67
2022/09/17 00:25:42;;;;;;;1.77;1.40;;;8.30;99.90;;;;;;492967;241;27878;-69
2022/09/17 00:27:43;;;;;;;1.47;1.37;;;8.20;99.90;;;;;;492893;241;28052;-69
2022/09/17 00:29:44;;;;;;;1.30;1.30;;;8.20;99.90;;;;;;492932;241;27623;-68
2022/09/17 00:31:46;;;;;;;3.97;1.30;;;8.10;99.90;;;;;;492935;241;28012;-67
2022/09/17 00:33:47;;;;;;;1.60;1.50;;;8.20;99.90;;;;;;492914;241;28032;-68
2022/09/17 00:35:48;;;;;;;1.57;1.40;;;8.10;99.90;;;;;;492960;241;28143;-70
2022/09/17 00:37:49;;;;;;;2.83;1.40;;;8.10;99.90;;;;;;492847;241;28270;-68
2022/09/17 00:39:51;;;;;;;1.20;1.20;;;8.10;99.90;;;;;;492881;241;28569;-68
2022/09/17 00:41:52;;;;;;;1.70;1.20;;;8.20;99.90;;;;;;492940;241;29295;-67
2022/09/17 00:43:53;;;;;;;1.60;1.50;;;8.20;99.90;;;;;;492924;241;28042;-68
2022/09/17 00:45:54;;;;;;;2.10;1.47;;;8.20;99.90;;;;;;492965;241;28313;-70
2022/09/17 00:47:56;;;;;;;1.20;1.20;;;8.10;99.90;;;;;;492916;241;28486;-68
2022/09/17 00:49:57;;;;;;;1.33;1.30;;;8.10;99.90;;;;;;492870;241;27940;-67
2022/09/17 00:51:58;;;;;;;1.40;1.40;;;8.00;99.90;;;;;;492912;241;27926;-68
2022/09/17 00:54:00;;;;;;;1.33;1.20;;;7.90;99.90;;;;;;492926;241;27942;-67
2022/09/17 00:56:01;;;;;;;1.53;1.10;;;7.80;99.90;;;;;;492947;241;28007;-70
2022/09/17 00:58:02;;;;;;;1.40;1.30;;;7.70;99.90;;;;;;492929;241;28163;-68
2022/09/17 01:00:03;;;;;;;1.30;1.30;;;7.70;99.90;;;;;;492894;241;27974;-69
2022/09/17 01:02:04;;;;;;;1.23;1.23;;;7.70;99.90;;;;;;492943;241;27949;-67
2022/09/17 01:04:06;;;;;;;1.30;1.30;;;7.70;99.90;;;;;;492937;241;28292;-68
2022/09/17 01:06:07;;;;;;;1.30;1.30;;;7.70;99.90;;;;;;492850;241;28087;-72
2022/09/17 01:08:08;;;;;;;1.37;1.30;;;7.70;99.90;;;;;;492952;241;27940;-68
2022/09/17 01:10:09;;;;;;;1.50;1.40;;;7.80;99.90;;;;;;492920;241;27647;-68
2022/09/17 01:12:11;;;;;;;1.30;1.20;;;7.80;99.90;;;;;;492843;241;28240;-71
2022/09/17 01:14:12;;;;;;;1.60;1.50;;;7.80;99.90;;;;;;492925;241;28072;-67
2022/09/17 01:16:13;;;;;;;1.30;1.30;;;7.80;99.90;;;;;;492836;241;28071;-68
2022/09/17 01:18:14;;;;;;;1.40;1.40;;;7.80;99.90;;;;;;492903;241;28340;-68
2022/09/17 01:20:16;;;;;;;1.60;1.50;;;7.70;99.90;;;;;;492707;241;28357;-69
2022/09/17 01:22:17;;;;;;;1.20;1.20;;;7.60;99.90;;;;;;492739;241;30071;-68
2022/09/17 01:24:18;;;;;;;1.63;1.53;;;7.60;99.90;;;;;;492723;241;28189;-68
2022/09/17 01:26:19;;;;;;;1.53;1.43;;;7.60;99.90;;;;;;492676;241;28423;-70
2022/09/17 01:28:21;;;;;;;1.20;1.20;;;7.60;99.90;;;;;;492945;241;28007;-67
2022/09/17 01:30:22;;;;;;;3.00;1.30;;;7.60;99.90;;;;;;492904;241;27942;-68
2022/09/17 01:32:24;;;;;;;1.50;1.40;;;7.50;99.90;;;;;;492942;241;27938;-67
2022/09/17 01:34:24;;;;;;;1.33;1.23;;;7.50;99.90;;;;;;492922;241;27912;-68
2022/09/17 01:36:26;;;;;;;1.50;1.40;;;7.50;99.90;;;;;;492824;241;28858;-69
2022/09/17 01:38:27;;;;;;;1.57;1.47;;;7.50;99.90;;;;;;492915;241;27608;-67
2022/09/17 01:40:28;;;;;;;1.37;1.27;;;7.50;99.90;;;;;;492904;241;27623;-68
2022/09/17 01:42:30;;;;;;;1.30;1.30;;;7.60;99.90;;;;;;492866;241;29207;-70
2022/09/17 01:44:31;;;;;;;1.60;1.50;;;7.60;99.90;;;;;;492919;241;27822;-67
2022/09/17 01:46:32;;;;;;;1.50;1.40;;;7.60;99.90;;;;;;492805;241;27771;-69
2022/09/17 01:48:33;;;;;;;1.53;1.43;;;7.60;99.90;;;;;;492941;241;27981;-68
2022/09/17 01:50:35;;;;;;;1.40;1.40;;;7.60;99.90;;;;;;492936;241;28151;-68
2022/09/17 01:52:36;;;;;;;1.40;1.33;;;7.60;99.90;;;;;;492928;241;29569;-67
2022/09/17 01:54:37;;;;;;;2.15;1.45;;;7.60;99.90;;;;;;492937;241;27975;-67
2022/09/17 01:56:38;;;;;;;1.60;1.50;;;7.60;99.90;;;;;;492850;241;27510;-70
2022/09/17 01:58:39;;;;;;;2.10;1.50;;;7.60;99.90;;;;;;492934;241;28050;-68
2022/09/17 02:00:41;;;;;;;1.20;1.20;;;7.60;99.90;;;;;;492947;241;27757;-67
2022/09/17 02:02:42;;;;;;;1.83;1.73;;;7.50;99.90;;;;;;492921;241;28981;-67
2022/09/17 02:04:43;;;;;;;3.62;1.40;;;7.50;99.90;;;;;;492919;241;27670;-67
2022/09/17 02:06:44;;;;;;;1.40;1.40;;;7.50;99.90;;;;;;492827;241;27511;-67
2022/09/17 02:08:46;;;;;;;1.73;1.63;;;7.50;99.90;;;;;;492910;241;27943;-68
2022/09/17 02:10:47;;;;;;;1.37;1.30;;;7.60;99.90;;;;;;492932;241;28444;-68
2022/09/17 02:12:48;;;;;;;1.47;1.37;;;7.60;99.90;;;;;;492943;241;28693;-72
2022/09/17 02:14:49;;;;;;;1.37;1.37;;;7.70;99.90;;;;;;492950;241;27893;-68
2022/09/17 02:16:51;;;;;;;1.90;1.80;;;7.70;99.90;;;;;;492850;241;27995;-68
2022/09/17 02:18:52;;;;;;;1.57;1.47;;;7.70;99.90;;;;;;492893;241;28432;-67
2022/09/17 02:20:53;;;;;;;1.73;1.63;;;7.60;99.90;;;;;;492942;241;28530;-68
2022/09/17 02:22:55;;;;;;;1.57;1.47;;;7.60;99.90;;;;;;492934;241;28547;-72
2022/09/17 02:24:56;;;;;;;8.57;1.50;;;7.70;99.90;;;;;;492943;241;28532;-67
2022/09/17 02:26:57;;;;;;;1.50;1.40;;;7.70;99.90;;;;;;492889;241;28092;-69
2022/09/17 02:28:58;;;;;;;1.83;1.73;;;7.60;99.90;;;;;;492887;241;28270;-68
2022/09/17 02:30:59;;;;;;;1.60;1.50;;;7.70;99.90;;;;;;492949;241;27820;-70
2022/09/17 02:33:01;;;;;;;1.50;1.40;;;7.70;99.90;;;;;;492935;241;27535;-72
2022/09/17 02:35:02;;;;;;;1.77;1.67;;;7.70;99.90;;;;;;492918;241;27945;-68
2022/09/17 02:37:03;;;;;;;1.67;1.30;;;7.60;99.90;;;;;;492850;241;27966;-67
2022/09/17 02:39:04;;;;;;;1.55;1.45;;;7.50;99.90;;;;;;492881;241;27453;-68
2022/09/17 02:41:06;;;;;;;3.70;1.63;;;7.50;99.90;;;;;;492940;241;27474;-68
2022/09/17 02:43:07;;;;;;;1.40;1.40;;;7.50;99.90;;;;;;492930;241;28343;-68
2022/09/17 02:45:08;;;;;;;1.50;1.40;;;7.50;99.90;;;;;;492916;241;28025;-68
2022/09/17 02:47:10;;;;;;;1.87;1.57;;;7.50;99.90;;;;;;492827;241;27908;-67
2022/09/17 02:49:11;;;;;;;1.80;1.70;;;7.40;99.90;;;;;;492870;241;30022;-68
2022/09/17 02:51:12;;;;;;;1.60;1.50;;;7.50;99.90;;;;;;492937;241;28490;-70
2022/09/17 02:53:13;;;;;;;1.90;1.80;;;7.50;99.90;;;;;;492932;241;28330;-69
2022/09/17 02:55:14;;;;;;;1.70;1.50;;;7.60;99.90;;;;;;492886;241;27486;-68
2022/09/17 02:57:16;;;;;;;2.10;1.40;;;7.50;99.90;;;;;;492839;241;27825;-67
2022/09/17 02:59:18;;;;;;;2.50;1.57;;;7.60;99.90;;;;;;492917;241;28907;-67
2022/09/17 03:01:18;;;;;;;4.10;1.77;;;7.50;99.90;;;;;;492879;241;28866;-67
2022/09/17 03:03:20;;;;;;;1.67;1.58;;;7.50;99.90;;;;;;492943;241;27997;-68
2022/09/17 03:05:21;;;;;;;1.63;1.53;;;7.40;99.90;;;;;;492853;241;27462;-68
2022/09/17 03:07:22;;;;;;;1.60;1.50;;;7.40;99.90;;;;;;492789;241;27860;-68
2022/09/17 03:09:23;;;;;;;2.00;1.90;;;7.40;99.90;;;;;;492809;241;28429;-67
2022/09/17 03:11:25;;;;;;;2.50;1.70;;;7.30;99.90;;;;;;492971;241;27951;-68
2022/09/17 03:13:26;;;;;;;2.00;1.80;;;7.30;99.90;;;;;;492946;241;28448;-69
2022/09/17 03:15:27;;;;;;;2.10;1.60;;;7.30;99.90;;;;;;492879;241;28696;-68
2022/09/17 03:17:28;;;;;;;1.80;1.70;;;7.30;99.90;;;;;;492833;241;29373;-68
2022/09/17 03:19:29;;;;;;;2.23;1.90;;;7.30;99.90;;;;;;492907;241;28235;-67
2022/09/17 03:21:31;;;;;;;3.03;2.13;;;7.20;99.90;;;;;;492931;241;28185;-69
2022/09/17 03:23:32;;;;;;;1.80;1.70;;;7.30;99.90;;;;;;492951;241;28090;-69
2022/09/17 03:25:33;;;;;;;1.70;1.60;;;7.30;99.90;;;;;;492911;241;28789;-67
2022/09/17 03:27:34;;;;;;;1.80;1.70;;;7.30;99.90;;;;;;492858;241;27596;-68
2022/09/17 03:29:36;;;;;;;2.25;1.60;;;7.40;99.90;;;;;;492966;241;27934;-67
2022/09/17 03:31:37;;;;;;;1.80;1.70;;;7.30;99.90;;;;;;492934;241;27506;-68
2022/09/17 03:33:38;;;;;;;1.70;1.60;;;7.30;99.90;;;;;;492925;241;27496;-70
2022/09/17 03:35:40;;;;;;;2.37;2.03;;;7.30;99.90;;;;;;492912;241;27927;-68
2022/09/17 03:37:41;;;;;;;2.05;1.77;;;7.30;99.90;;;;;;492891;241;28420;-68
2022/09/17 03:39:42;;;;;;;1.83;1.73;;;7.30;99.90;;;;;;492948;241;28156;-70
2022/09/17 03:41:43;;;;;;;2.20;1.60;;;7.30;99.90;;;;;;492797;241;27466;-67
2022/09/17 03:43:45;;;;;;;1.90;1.80;;;7.30;99.90;;;;;;492974;241;27943;-69
2022/09/17 03:45:47;;;;;;;2.00;1.90;;;7.50;99.90;;;;;;492868;241;27701;-68
2022/09/17 03:47:47;;;;;;;1.63;1.53;;;7.50;99.90;;;;;;492806;241;27869;-69
2022/09/17 03:49:51;;;;;;;1.80;1.70;;;7.60;99.90;;;;;;492975;241;28020;-70
2022/09/17 03:51:51;;;;;;;1.63;1.53;;;7.60;99.90;;;;;;492858;241;28581;-68
2022/09/17 03:53:52;;;;;;;2.20;1.53;;;7.70;99.90;;;;;;492934;241;28322;-67
2022/09/17 03:55:53;;;;;;;2.30;1.60;;;7.70;99.90;;;;;;492967;241;28171;-68
2022/09/17 03:57:55;;;;;;;1.40;1.40;;;7.60;99.90;;;;;;492881;241;28458;-70
2022/09/17 03:59:56;;;;;;;1.50;1.50;;;7.70;99.90;;;;;;492969;241;28271;-68
2022/09/17 04:01:57;;;;;;;2.40;1.90;;;7.70;99.90;;;;;;492960;241;28113;-68
2022/09/17 04:03:58;;;;;;;2.73;1.60;;;7.70;99.90;;;;;;492977;241;28249;-68
2022/09/17 04:06:00;;;;;;;2.10;1.63;;;7.70;99.90;;;;;;492960;241;27818;-67
2022/09/17 04:08:01;;;;;;;1.40;1.37;;;7.80;99.90;;;;;;492899;241;28829;-70
2022/09/17 04:10:04;;;;;;;2.10;1.83;;;7.80;99.90;;;;;;492933;241;27653;-67
2022/09/17 04:12:03;;;;;;;1.60;1.50;;;7.80;99.90;;;;;;492810;241;27962;-68
2022/09/17 04:14:05;;;;;;;1.63;1.50;;;7.80;99.90;;;;;;492920;241;27693;-68
2022/09/17 04:16:06;;;;;;;1.60;1.50;;;7.90;99.90;;;;;;492922;241;27669;-75
2022/09/17 04:18:07;;;;;;;1.40;1.30;;;7.90;99.90;;;;;;492804;241;27892;-70
2022/09/17 04:20:08;;;;;;;1.83;1.50;;;8.00;99.90;;;;;;492938;241;27939;-68
2022/09/17 04:22:10;;;;;;;1.60;1.50;;;8.00;99.90;;;;;;492907;241;27963;-68
2022/09/17 04:24:11;;;;;;;1.57;1.47;;;8.00;99.90;;;;;;492960;241;28205;-67
2022/09/17 04:26:13;;;;;;;1.60;1.50;;;8.10;99.90;;;;;;492900;241;28026;-68
2022/09/17 04:28:13;;;;;;;1.87;1.77;;;8.10;99.90;;;;;;492927;241;27694;-70
2022/09/17 04:30:15;;;;;;;3.67;1.90;;;8.10;99.90;;;;;;492896;241;28392;-69
2022/09/17 04:32:16;;;;;;;2.77;1.53;;;8.10;99.90;;;;;;492944;241;28455;-67
2022/09/17 04:34:17;;;;;;;2.30;1.70;;;8.10;99.90;;;;;;492870;241;28407;-70
2022/09/17 04:36:18;;;;;;;1.70;1.60;;;8.10;99.90;;;;;;492862;241;29159;-67
2022/09/17 04:38:21;;;;;;;1.63;1.53;;;8.10;99.90;;;;;;492908;241;28583;-70
2022/09/17 04:40:21;;;;;;;1.80;1.60;;;8.10;99.90;;;;;;492913;241;27970;-68
2022/09/17 04:42:22;;;;;;;3.50;1.70;;;8.10;99.90;;;;;;492938;241;27745;-68
2022/09/17 04:44:23;;;;;;;1.67;1.57;;;8.20;99.90;;;;;;492868;241;27940;-67
2022/09/17 04:46:25;;;;;;;3.13;1.90;;;8.10;99.90;;;;;;492899;241;27831;-68
2022/09/17 04:48:26;;;;;;;1.70;1.57;;;8.20;99.90;;;;;;492909;241;27622;-70
2022/09/17 04:50:27;;;;;;;5.07;1.90;;;8.20;99.90;;;;;;492942;241;27951;-67
2022/09/17 04:52:28;;;;;;;1.43;1.43;;;8.20;99.90;;;;;;492924;241;27992;-68
2022/09/17 04:54:30;;;;;;;2.30;1.80;;;8.20;99.90;;;;;;492878;241;28120;-68
2022/09/17 04:56:31;;;;;;;1.83;1.73;;;8.20;99.90;;;;;;492854;241;28081;-68
2022/09/17 04:58:32;;;;;;;3.20;1.97;;;8.20;99.90;;;;;;492928;241;27980;-71
2022/09/17 05:00:34;;;;;;;2.53;2.33;;;8.20;99.90;;;;;;492941;241;27956;-68
2022/09/17 05:02:35;;;;;;;3.53;1.90;;;8.20;99.90;;;;;;492922;241;27988;-69
2022/09/17 05:04:36;;;;;;;4.90;2.17;;;8.20;99.90;;;;;;492893;241;27803;-68
2022/09/17 05:06:37;;;;;;;2.10;2.00;;;8.20;99.90;;;;;;492867;241;28115;-69
2022/09/17 05:08:38;;;;;;;2.40;2.30;;;8.20;99.90;;;;;;492926;241;28253;-71
2022/09/17 05:10:40;;;;;;;2.20;2.10;;;8.20;99.90;;;;;;492942;241;28400;-68
2022/09/17 05:12:41;;;;;;;2.50;2.20;;;8.20;99.90;;;;;;492920;241;28094;-68
2022/09/17 05:14:42;;;;;;;2.13;2.03;;;8.20;99.90;;;;;;492908;241;29177;-68
2022/09/17 05:16:43;;;;;;;3.27;2.10;;;8.20;99.90;;;;;;492902;241;28453;-68
2022/09/17 05:18:45;;;;;;;3.40;2.27;;;8.20;99.90;;;;;;492971;241;28502;-70
2022/09/17 05:20:46;;;;;;;4.03;2.20;;;8.30;99.90;;;;;;492918;241;27942;-68
2022/09/17 05:22:47;;;;;;;2.50;2.30;;;8.30;99.90;;;;;;492974;241;27865;-69
2022/09/17 05:24:48;;;;;;;3.27;2.40;;;8.30;99.90;;;;;;492889;241;27868;-68
2022/09/17 05:26:50;;;;;;;2.00;1.90;;;8.30;99.90;;;;;;492890;241;27935;-70
2022/09/17 05:28:51;;;;;;;2.23;2.03;;;8.30;99.90;;;;;;492949;241;27600;-69
2022/09/17 05:30:52;;;;;;;2.40;2.20;;;8.30;99.90;;;;;;492893;241;27784;-68
2022/09/17 05:32:53;;;;;;;2.00;1.90;;;8.30;99.90;;;;;;492931;241;27994;-69
2022/09/17 05:34:55;;;;;;;2.70;2.27;;;8.30;99.90;;;;;;492953;241;27617;-68
2022/09/17 05:36:56;;;;;;;2.50;2.40;;;8.40;99.90;;;;;;492894;241;27700;-68
2022/09/17 05:38:57;;;;;;;2.80;2.60;;;8.30;99.90;;;;;;492927;241;28075;-70
2022/09/17 05:40:58;;;;;;;2.20;2.00;;;8.40;99.90;;;;;;492928;241;28384;-68
2022/09/17 05:43:00;;;;;;;2.53;2.10;;;8.40;99.90;;;;;;492933;241;28477;-69
2022/09/17 05:45:01;;;;;;;1.90;1.80;;;8.40;99.90;;;;;;492921;241;28561;-68
2022/09/17 05:47:03;;;;;;;2.30;2.10;;;8.40;99.90;;;;;;492868;241;28275;-68
2022/09/17 05:49:03;;;;;;;2.53;1.97;;;8.50;99.90;;;;;;492940;241;28728;-73
2022/09/17 05:51:05;;;;;;;4.93;2.33;;;8.50;99.90;;;;;;492902;241;27927;-68
2022/09/17 05:53:06;;;;;;;3.27;2.10;;;8.50;99.90;;;;;;492971;241;28058;-68
2022/09/17 05:55:07;;;;;;;2.20;1.93;;;8.50;99.90;;;;;;492954;241;28098;-71
2022/09/17 05:57:08;;;;;;;1.97;1.87;;;8.50;99.90;;;;;;492857;241;28035;-69
2022/09/17 05:59:11;;;;;;;4.30;1.80;;;8.50;99.90;;;;;;492941;241;27987;-69
2022/09/17 06:01:14;;;;;;;1.57;1.57;;;8.50;99.90;;;;;;492849;241;27937;-69
2022/09/17 06:03:12;;;;;;;2.60;2.40;;;8.60;99.90;;;;;;492571;241;27995;-68
2022/09/17 06:05:13;;;;;;;1.83;1.73;;;8.60;99.90;;;;;;492929;241;27762;-73
2022/09/17 06:07:15;;;;;;;2.20;2.00;;;8.60;99.90;;;;;;492831;241;28058;-69
2022/09/17 06:09:16;;;;;;;2.43;2.23;;;8.70;99.90;;;;;;492925;241;27937;-69
2022/09/17 06:11:17;;;;;;;2.60;2.30;;;8.70;99.90;;;;;;492911;241;27859;-68
2022/09/17 06:13:18;;;;;;;2.43;2.10;;;8.70;99.90;;;;;;492866;241;27966;-69
2022/09/17 06:15:20;;;;;;;2.37;2.20;;;8.70;99.90;;;;;;492952;241;28026;-72
2022/09/17 06:17:21;;;;;;;3.03;2.10;;;8.70;99.90;;;;;;492800;241;27922;-68
2022/09/17 06:19:22;;;;;;;2.00;1.80;;;8.70;99.90;;;;;;492934;241;27981;-69
2022/09/17 06:21:24;;;;;;;2.37;2.20;;;8.70;99.90;;;;;;492938;241;28137;-69
2022/09/17 06:23:25;;;;;;;2.33;2.13;;;8.70;99.90;;;;;;492932;241;28333;-69
2022/09/17 06:25:28;;;;;;;2.50;2.40;;;8.60;99.90;;;;;;492969;241;28495;-70
2022/09/17 06:27:27;;;;;;;2.50;2.30;;;8.70;99.90;;;;;;492733;241;28479;-69
2022/09/17 06:29:29;;;;;;;2.30;2.10;;;8.70;99.90;;;;;;492939;241;28545;-68
2022/09/17 06:31:30;;;;;;;2.60;2.40;;;8.70;99.90;;;;;;492898;241;28414;-68
2022/09/17 06:33:31;;;;;;;2.30;2.20;;;8.80;99.90;;;;;;492917;241;28028;-69
2022/09/17 06:35:32;;;;;;;4.57;2.17;;;8.80;99.90;;;;;;492906;241;27976;-72
2022/09/17 06:37:35;;;;;;;3.43;1.93;;;8.80;99.90;;;;;;492834;241;27827;-68
2022/09/17 06:39:35;;;;;;;3.70;2.30;;;8.90;99.90;;;;;;492859;241;27819;-68
2022/09/17 06:41:36;;;;;;;2.27;2.07;;;8.90;99.90;;;;;;492906;241;27955;-68
2022/09/17 06:43:37;;;;;;;2.20;2.10;;;8.90;99.90;;;;;;492907;241;27962;-69
2022/09/17 06:45:39;;;;;;;6.13;2.10;;;9.00;99.90;;;;;;492944;241;27753;-71
2022/09/17 06:47:40;;;;;;;2.33;2.13;;;8.90;99.90;;;;;;492834;241;27571;-70
2022/09/17 06:49:41;;;;;;;4.10;1.90;;;9.00;99.90;;;;;;492873;241;28315;-69
2022/09/17 06:51:42;;;;;;;2.93;2.07;;;9.00;99.90;;;;;;492932;241;28485;-69
2022/09/17 06:53:44;;;;;;;2.90;2.10;;;9.00;99.90;;;;;;492909;241;28076;-68
2022/09/17 06:55:45;;;;;;;2.33;2.13;;;9.00;99.90;;;;;;492879;241;27968;-71
2022/09/17 06:57:46;;;;;;;5.57;2.10;;;9.10;99.90;;;;;;492865;241;27991;-69
2022/09/17 06:59:49;;;;;;;2.37;2.00;;;9.10;99.90;;;;;;492866;241;27956;-69
2022/09/17 07:01:49;;;;;;;2.53;2.33;;;9.20;99.90;;;;;;492872;241;27590;-68
2022/09/17 07:03:50;;;;;;;3.00;2.40;;;9.20;99.90;;;;;;492935;241;27986;-68
2022/09/17 07:05:51;;;;;;;4.80;2.40;;;9.10;99.90;;;;;;492985;241;27994;-72
2022/09/17 07:07:52;;;;;;;4.10;2.33;;;9.00;99.90;;;;;;492926;241;27970;-68
2022/09/17 07:09:54;;;;;;;2.47;2.27;;;8.90;99.90;;;;;;492898;241;27981;-69
2022/09/17 07:11:56;;;;;;;4.33;2.50;;;8.90;99.90;;;;;;491934;241;28014;-68
2022/09/17 07:13:56;;;;;;;4.33;2.50;;;9.00;99.90;;;;;;491472;242;27915;-68
2022/09/17 07:15:57;;;;;;;2.83;1.90;;;9.10;99.90;;;;;;491473;242;28183;-69
2022/09/17 07:17:59;;;;;;;2.60;2.33;;;9.20;99.90;;;;;;491436;242;28215;-68
2022/09/17 07:20:00;;;;;;;3.10;2.53;;;9.20;99.90;;;;;;491430;242;29302;-68
2022/09/17 07:22:01;;;;;;;2.57;2.40;;;9.10;99.90;;;;;;491512;242;28280;-68
2022/09/17 07:24:03;;;;;;;3.40;2.40;;;9.10;99.90;;;;;;491482;242;28023;-68
2022/09/17 07:26:04;;;;;;;2.80;2.60;;;9.20;99.90;;;;;;491371;242;28552;-76
2022/09/17 07:28:05;;;;;;;3.13;2.20;;;9.40;99.90;;;;;;491510;242;27929;-68
2022/09/17 07:30:06;;;;;;;2.10;1.90;;;9.60;99.90;;;;;;491486;242;27969;-68
2022/09/17 07:32:08;;;;;;;5.20;2.50;;;9.80;99.90;;;;;;491454;242;28105;-68
2022/09/17 07:34:09;;;;;;;3.27;2.10;;;9.80;99.90;;;;;;491503;242;27835;-68
2022/09/17 07:36:10;;;;;;;2.07;1.93;;;9.80;99.90;;;;;;491332;242;28641;-69
2022/09/17 07:38:12;;;;;;;5.00;2.53;;;9.70;99.90;;;;;;491492;242;28550;-72
2022/09/17 07:40:13;;;;;;;2.37;2.20;;;9.70;99.90;;;;;;491475;242;28039;-67
2022/09/17 07:42:14;;;;;;;4.40;2.43;;;9.70;99.90;;;;;;491653;240;28455;-70
2022/09/17 07:44:15;;;;;;;2.47;2.37;;;9.70;99.90;;;;;;494811;240;27953;-68
2022/09/17 07:46:17;;;;;;;3.30;2.37;;;9.80;99.90;;;;;;494791;240;27942;-69
2022/09/17 07:48:19;;;;;;;3.40;2.30;;;9.90;99.90;;;;;;494806;240;27954;-72
2022/09/17 07:50:21;;;;;;;2.80;2.17;;;10.10;99.90;;;;;;494830;240;28440;-71
2022/09/17 07:52:22;;;;;;;7.80;3.53;;;10.20;99.90;;;;;;494860;240;28459;-68
2022/09/17 07:54:24;;;;;;;2.40;2.20;;;10.40;99.90;;;;;;494830;240;28360;-69
2022/09/17 07:56:25;;;;;;;4.00;2.57;;;10.60;99.90;;;;;;494813;240;28490;-69
2022/09/17 07:58:26;;;;;;;3.13;2.40;;;10.60;99.90;;;;;;494860;240;27873;-69
2022/09/17 08:00:27;;;;;;;3.23;2.20;;;10.70;99.90;;;;;;494843;240;27965;-69
2022/09/17 08:02:29;;;;;;;6.50;2.33;;;10.90;99.90;;;;;;494892;240;28305;-72
2022/09/17 08:04:30;;;;;;;3.10;2.30;;;11.00;99.90;;;;;;494837;240;28612;-68
2022/09/17 08:06:31;;;;;;;3.93;2.27;;;11.00;99.90;;;;;;494820;240;28528;-70
2022/09/17 08:08:32;;;;;;;2.80;2.40;;;10.90;99.90;;;;;;494801;240;28034;-68
2022/09/17 08:10:34;;;;;;;3.13;2.10;;;10.80;99.90;;;;;;494867;240;28146;-68
2022/09/17 08:12:35;;;;;;;4.00;2.17;;;10.60;99.90;;;;;;494861;240;27920;-71
2022/09/17 08:14:36;;;;;;;4.10;2.20;;;10.50;99.90;;;;;;494877;240;27986;-68
2022/09/17 08:16:37;;;;;;;2.40;2.10;;;10.70;99.90;;;;;;494807;240;28065;-69
2022/09/17 08:18:39;;;;;;;4.60;2.00;;;10.90;99.90;;;;;;494869;240;27918;-68
2022/09/17 08:20:40;;;;;;;2.60;2.30;;;11.10;99.90;;;;;;494885;240;27850;-68
2022/09/17 08:22:41;;;;;;;3.80;2.00;;;11.30;99.90;;;;;;494884;240;27975;-72
2022/09/17 08:24:43;;;;;;;3.10;2.33;;;11.30;99.90;;;;;;494873;240;28016;-68
2022/09/17 08:26:44;;;;;;;2.80;1.87;;;11.30;99.90;;;;;;494709;240;28600;-70
2022/09/17 08:28:45;;;;;;;2.93;2.50;;;11.20;99.90;;;;;;494859;240;28627;-68
2022/09/17 08:30:47;;;;;;;3.27;1.77;;;11.10;99.90;;;;;;494913;240;28161;-68
2022/09/17 08:32:47;;;;;;;6.30;2.57;;;11.00;99.90;;;;;;494841;240;28161;-72
2022/09/17 08:34:49;;;;;;;2.40;2.20;;;10.80;99.90;;;;;;494905;240;28022;-68
2022/09/17 08:36:50;;;;;;;4.23;2.47;;;10.80;99.90;;;;;;494794;240;27981;-69
2022/09/17 08:38:51;;;;;;;4.07;2.23;;;10.90;99.90;;;;;;494808;240;28050;-68
2022/09/17 08:40:52;;;;;;;2.33;2.03;;;11.00;99.90;;;;;;494887;240;28040;-68
2022/09/17 08:42:55;;;;;;;2.33;2.10;;;11.10;99.90;;;;;;494880;240;28154;-72
2022/09/17 08:44:55;;;;;;;3.33;1.90;;;11.20;99.90;;;;;;494827;240;28522;-67
2022/09/17 08:46:56;;;;;;;3.00;1.90;;;11.20;99.90;;;;;;494811;239;28661;-70
2022/09/17 08:48:57;;;;;;;3.50;2.10;;;11.10;99.90;;;;;;494423;240;28636;-69
2022/09/17 08:50:59;;;;;;;5.27;2.20;;;11.10;99.90;;;;;;494861;240;27963;-68
2022/09/17 08:53:01;;;;;;;3.83;2.27;;;11.20;99.90;;;;;;494903;240;27734;-70
2022/09/17 08:55:02;;;;;;;2.17;1.80;;;11.50;99.90;;;;;;494783;240;28073;-68
2022/09/17 08:57:03;;;;;;;2.67;2.37;;;11.70;99.90;;;;;;494824;240;28086;-68
2022/09/17 08:59:04;;;;;;;2.40;1.80;;;11.60;99.90;;;;;;494874;240;28150;-67
2022/09/17 09:01:05;;;;;;;1.60;1.50;;;11.40;99.90;;;;;;494851;240;27924;-69
2022/09/17 09:03:07;;;;;;;2.60;1.90;;;11.30;99.90;;;;;;494953;240;28073;-71
2022/09/17 09:05:07;;;;;;;2.83;2.00;;;11.40;99.90;;;;;;494890;240;28138;-69
2022/09/17 09:07:09;;;;;;;3.67;2.50;;;11.60;99.90;;;;;;494798;240;28225;-69
2022/09/17 09:09:10;;;;;;;5.53;1.97;;;11.60;99.90;;;;;;494834;240;28709;-68
2022/09/17 09:11:11;;;;;;;2.67;1.90;;;11.70;99.90;;;;;;494714;240;28512;-68
2022/09/17 09:13:13;;;;;;;4.60;2.50;;;11.80;99.90;;;;;;494712;240;28671;-71
2022/09/17 09:15:14;;;;;;;1.80;1.70;;;11.90;99.90;;;;;;494628;240;28367;-68
2022/09/17 09:17:15;;;;;;;2.07;1.70;;;12.20;99.90;;;;;;494663;240;28476;-69
2022/09/17 09:19:16;;;;;;;1.90;1.80;;;12.40;99.90;;;;;;494890;240;28479;-68
2022/09/17 09:21:17;;;;;;;1.83;1.70;;;12.50;99.90;;;;;;494887;240;28380;-69
2022/09/17 09:23:19;;;;;;;5.13;2.23;;;12.50;99.90;;;;;;494891;240;28225;-71
2022/09/17 09:25:22;;;;;;;3.43;2.10;;;12.40;99.90;;;;;;494888;240;28353;-68
2022/09/17 09:27:21;;;;;;;4.50;2.30;;;12.40;99.90;;;;;;494726;240;28046;-68
2022/09/17 09:29:22;;;;;;;4.55;1.50;;;12.20;99.90;;;;;;491034;240;36167;-68
2022/09/17 09:31:24;;;;;;;7.63;2.20;;;12.30;99.90;;;;;;494864;240;28734;-68
2022/09/17 09:33:25;;;;;;;4.30;2.03;;;12.50;99.90;;;;;;494612;240;29237;-70
2022/09/17 09:35:26;;;;;;;5.70;2.10;;;12.40;99.90;;;;;;494874;240;28415;-69
2022/09/17 09:37:27;;;;;;;3.67;2.00;;;12.10;99.90;;;;;;491535;240;28651;-69
2022/09/17 09:39:34;;;;;;;3.23;1.60;;;12.20;99.90;;;;;;491459;242;29947;-69
2022/09/17 09:41:30;;;;;;;2.10;1.80;;;12.30;99.90;;;;;;490934;242;28791;-68
2022/09/17 09:43:31;;;;;;;4.80;2.13;;;12.40;99.90;;;;;;491383;242;28377;-72
2022/09/17 09:45:32;;;;;;;2.60;1.73;;;12.60;99.90;;;;;;491411;242;28553;-68
2022/09/17 09:47:34;;;;;;;3.40;1.80;;;12.70;99.90;;;;;;491328;242;28419;-68
2022/09/17 09:49:35;;;;;;;5.33;1.70;;;12.70;99.90;;;;;;491446;242;28908;-69
2022/09/17 09:51:36;;;;;;;3.93;1.80;;;12.70;99.90;;;;;;491518;242;28298;-70
2022/09/17 09:53:38;;;;;;;5.60;1.90;;;12.70;99.90;;;;;;491447;242;28567;-72
2022/09/17 09:55:39;;;;;;;4.83;1.80;;;12.60;99.90;;;;;;491450;242;28220;-69
2022/09/17 09:57:40;;;;;;;1.53;1.43;;;12.60;99.90;;;;;;491354;242;29321;-69
2022/09/17 09:59:41;;;;;;;4.00;1.60;;;12.80;99.90;;;;;;491367;242;29402;-69
2022/09/17 10:01:43;;;;;;;1.70;1.57;;;12.80;99.90;;;;;;491304;242;29104;-70
2022/09/17 10:03:47;;;;;;;5.83;1.67;;;13.00;99.90;;;;;;491259;242;28422;-68
2022/09/17 10:05:45;;;;;;;3.77;1.60;;;13.00;99.90;;;;;;490914;242;28160;-69
2022/09/17 10:07:46;;;;;;;2.00;1.40;;;13.00;99.90;;;;;;491368;242;28248;-69
2022/09/17 10:09:47;;;;;;;2.23;1.73;;;12.80;99.90;;;;;;491471;242;28191;-69
2022/09/17 10:11:49;;;;;;;2.03;1.70;;;12.90;99.90;;;;;;491487;242;28263;-70
2022/09/17 10:13:50;;;;;;;4.80;2.00;;;13.00;99.90;;;;;;491494;242;28226;-69
2022/09/17 10:15:53;;;;;;;2.23;1.30;;;;;;;;;;491510;242;28189;-68
2022/09/17 10:17:54;;;;;;;2.80;1.67;;;13.20;99.90;;;;;;491401;241;26477;-69
2022/09/17 10:19:55;;;;;;;3.90;1.90;;;13.00;99.90;;;;;;491503;242;28252;-68
2022/09/17 10:21:56;;;;;;;3.47;1.63;;;12.90;99.90;;;;;;491404;242;28191;-69
2022/09/17 10:23:57;;;;;;;3.53;1.70;;;12.80;99.90;;;;;;491515;242;28270;-68
2022/09/17 10:25:59;;;;;;;3.73;1.80;;;12.60;99.90;;;;;;491476;242;28939;-77
2022/09/17 10:28:00;;;;;;;5.20;1.70;;;12.40;99.90;;;;;;491460;242;28404;-68
2022/09/17 10:30:02;;;;;;;3.53;1.80;;;12.30;99.90;;;;;;491513;242;28618;-69
2022/09/17 10:32:05;;;;;;;2.63;1.60;;;12.10;99.90;;;;;;491435;242;29315;-70
2022/09/17 10:34:04;;;;;;;4.00;1.73;;;12.10;99.90;;;;;;491121;242;28822;-70
2022/09/17 10:36:05;;;;;;;2.53;1.90;;;12.20;99.90;;;;;;491300;242;28152;-69
2022/09/17 10:38:07;;;;;;;3.10;1.77;;;12.20;99.90;;;;;;491483;242;28582;-73